Aviation Digital Data Service (ADDS)

Output produced by METARs form (1429 UTC 10 July 2020)
found at http://www.aviationweather.gov/metar/data/
 
KSTC 101120Z 1012/1112 30007KT P6SM SKC 
     FM101800 28012G18KT P6SM FEW060 
     FM110100 VRB03KT P6SM BKN110